sensor_id;sensor_type;location;lat;lon;timestamp;P1;durP1;ratioP1;P2;durP2;ratioP2
5195;SDS011;2617;51.006;12.436;2023-03-01T00:03:46;14.80;;;8.70;;
5195;SDS011;2617;51.006;12.436;2023-03-01T00:08:49;19.33;;;9.32;;
5195;SDS011;2617;51.006;12.436;2023-03-01T00:13:52;11.47;;;8.77;;
5195;SDS011;2617;51.006;12.436;2023-03-01T00:18:54;16.47;;;8.10;;
5195;SDS011;2617;51.006;12.436;2023-03-01T00:23:56;11.87;;;8.03;;
5195;SDS011;2617;51.006;12.436;2023-03-01T00:28:58;18.90;;;10.77;;
5195;SDS011;2617;51.006;12.436;2023-03-01T00:34:02;17.27;;;9.38;;
5195;SDS011;2617;51.006;12.436;2023-03-01T00:39:05;16.20;;;9.10;;
5195;SDS011;2617;51.006;12.436;2023-03-01T00:44:07;18.50;;;9.97;;
5195;SDS011;2617;51.006;12.436;2023-03-01T00:49:10;17.47;;;9.50;;
5195;SDS011;2617;51.006;12.436;2023-03-01T00:54:13;16.35;;;9.70;;
5195;SDS011;2617;51.006;12.436;2023-03-01T00:59:15;17.90;;;9.87;;
5195;SDS011;2617;51.006;12.436;2023-03-01T01:04:17;14.40;;;9.93;;
5195;SDS011;2617;51.006;12.436;2023-03-01T01:09:20;14.97;;;8.77;;
5195;SDS011;2617;51.006;12.436;2023-03-01T01:14:22;15.67;;;9.30;;
5195;SDS011;2617;51.006;12.436;2023-03-01T01:19:25;19.33;;;10.60;;
5195;SDS011;2617;51.006;12.436;2023-03-01T01:24:28;12.40;;;7.37;;
5195;SDS011;2617;51.006;12.436;2023-03-01T01:29:30;17.90;;;8.27;;
5195;SDS011;2617;51.006;12.436;2023-03-01T01:34:33;18.10;;;8.82;;
5195;SDS011;2617;51.006;12.436;2023-03-01T01:39:35;15.60;;;9.90;;
5195;SDS011;2617;51.006;12.436;2023-03-01T01:44:39;15.10;;;10.13;;
5195;SDS011;2617;51.006;12.436;2023-03-01T01:49:42;13.47;;;8.60;;
5195;SDS011;2617;51.006;12.436;2023-03-01T01:54:51;18.43;;;9.17;;
5195;SDS011;2617;51.006;12.436;2023-03-01T01:59:54;15.13;;;9.10;;
5195;SDS011;2617;51.006;12.436;2023-03-01T02:05:01;17.90;;;10.27;;
5195;SDS011;2617;51.006;12.436;2023-03-01T02:10:00;14.27;;;8.40;;
5195;SDS011;2617;51.006;12.436;2023-03-01T02:15:03;24.40;;;10.90;;
5195;SDS011;2617;51.006;12.436;2023-03-01T02:20:15;16.77;;;8.87;;
5195;SDS011;2617;51.006;12.436;2023-03-01T02:25:25;14.27;;;8.85;;
5195;SDS011;2617;51.006;12.436;2023-03-01T02:30:32;16.50;;;9.63;;
5195;SDS011;2617;51.006;12.436;2023-03-01T02:35:35;15.00;;;9.37;;
5195;SDS011;2617;51.006;12.436;2023-03-01T02:40:37;16.77;;;9.20;;
5195;SDS011;2617;51.006;12.436;2023-03-01T02:45:47;15.73;;;8.75;;
5195;SDS011;2617;51.006;12.436;2023-03-01T02:51:01;19.17;;;9.03;;
5195;SDS011;2617;51.006;12.436;2023-03-01T02:56:00;19.53;;;9.60;;
5195;SDS011;2617;51.006;12.436;2023-03-01T03:01:03;20.40;;;9.67;;
5195;SDS011;2617;51.006;12.436;2023-03-01T03:06:06;13.50;;;8.40;;
5195;SDS011;2617;51.006;12.436;2023-03-01T03:11:08;14.17;;;8.90;;
5195;SDS011;2617;51.006;12.436;2023-03-01T03:16:11;15.57;;;10.20;;
5195;SDS011;2617;51.006;12.436;2023-03-01T03:21:14;22.63;;;9.50;;
5195;SDS011;2617;51.006;12.436;2023-03-01T03:26:16;19.98;;;9.25;;
5195;SDS011;2617;51.006;12.436;2023-03-01T03:31:19;18.07;;;10.23;;
5195;SDS011;2617;51.006;12.436;2023-03-01T03:36:22;15.68;;;8.50;;
5195;SDS011;2617;51.006;12.436;2023-03-01T03:41:24;14.97;;;8.70;;
5195;SDS011;2617;51.006;12.436;2023-03-01T03:46:26;14.60;;;9.90;;
5195;SDS011;2617;51.006;12.436;2023-03-01T03:51:29;15.88;;;9.40;;
5195;SDS011;2617;51.006;12.436;2023-03-01T03:56:32;16.55;;;9.45;;
5195;SDS011;2617;51.006;12.436;2023-03-01T04:01:34;13.73;;;8.40;;
5195;SDS011;2617;51.006;12.436;2023-03-01T04:06:36;13.77;;;8.37;;
5195;SDS011;2617;51.006;12.436;2023-03-01T04:11:39;17.30;;;9.70;;
5195;SDS011;2617;51.006;12.436;2023-03-01T04:16:41;18.23;;;8.40;;
5195;SDS011;2617;51.006;12.436;2023-03-01T04:21:44;15.53;;;9.13;;
5195;SDS011;2617;51.006;12.436;2023-03-01T04:26:47;19.37;;;9.20;;
5195;SDS011;2617;51.006;12.436;2023-03-01T04:31:49;18.77;;;8.70;;
5195;SDS011;2617;51.006;12.436;2023-03-01T04:36:52;16.83;;;9.10;;
5195;SDS011;2617;51.006;12.436;2023-03-01T04:41:55;15.48;;;8.20;;
5195;SDS011;2617;51.006;12.436;2023-03-01T04:46:57;17.45;;;9.43;;
5195;SDS011;2617;51.006;12.436;2023-03-01T04:52:00;15.40;;;10.07;;
5195;SDS011;2617;51.006;12.436;2023-03-01T04:57:04;20.37;;;10.40;;
5195;SDS011;2617;51.006;12.436;2023-03-01T05:02:06;24.30;;;10.20;;
5195;SDS011;2617;51.006;12.436;2023-03-01T05:07:08;14.15;;;9.23;;
5195;SDS011;2617;51.006;12.436;2023-03-01T05:12:12;23.40;;;11.30;;
5195;SDS011;2617;51.006;12.436;2023-03-01T05:17:14;19.57;;;11.40;;
5195;SDS011;2617;51.006;12.436;2023-03-01T05:22:17;17.43;;;10.90;;
5195;SDS011;2617;51.006;12.436;2023-03-01T05:27:20;20.10;;;9.67;;
5195;SDS011;2617;51.006;12.436;2023-03-01T05:32:22;18.23;;;8.73;;
5195;SDS011;2617;51.006;12.436;2023-03-01T05:37:25;17.43;;;10.10;;
5195;SDS011;2617;51.006;12.436;2023-03-01T05:42:27;20.50;;;10.13;;
5195;SDS011;2617;51.006;12.436;2023-03-01T05:47:29;24.70;;;10.52;;
5195;SDS011;2617;51.006;12.436;2023-03-01T05:52:32;18.40;;;9.47;;
5195;SDS011;2617;51.006;12.436;2023-03-01T05:57:34;19.90;;;9.83;;
5195;SDS011;2617;51.006;12.436;2023-03-01T06:02:37;21.37;;;10.10;;
5195;SDS011;2617;51.006;12.436;2023-03-01T06:07:39;15.10;;;9.30;;
5195;SDS011;2617;51.006;12.436;2023-03-01T06:12:43;20.25;;;10.90;;
5195;SDS011;2617;51.006;12.436;2023-03-01T06:17:45;18.43;;;9.43;;
5195;SDS011;2617;51.006;12.436;2023-03-01T06:22:49;16.77;;;10.10;;
5195;SDS011;2617;51.006;12.436;2023-03-01T06:27:51;15.47;;;9.33;;
5195;SDS011;2617;51.006;12.436;2023-03-01T06:32:53;15.87;;;9.30;;
5195;SDS011;2617;51.006;12.436;2023-03-01T06:37:56;18.40;;;11.40;;
5195;SDS011;2617;51.006;12.436;2023-03-01T06:42:58;19.07;;;9.67;;
5195;SDS011;2617;51.006;12.436;2023-03-01T06:48:01;17.57;;;9.60;;
5195;SDS011;2617;51.006;12.436;2023-03-01T06:53:05;18.30;;;11.10;;
5195;SDS011;2617;51.006;12.436;2023-03-01T06:58:08;21.50;;;11.90;;
5195;SDS011;2617;51.006;12.436;2023-03-01T07:03:09;23.50;;;12.27;;
5195;SDS011;2617;51.006;12.436;2023-03-01T07:08:14;19.34;;;12.48;;
5195;SDS011;2617;51.006;12.436;2023-03-01T07:13:17;20.23;;;12.17;;
5195;SDS011;2617;51.006;12.436;2023-03-01T07:18:19;23.00;;;12.23;;
5195;SDS011;2617;51.006;12.436;2023-03-01T07:23:24;33.67;;;18.47;;
5195;SDS011;2617;51.006;12.436;2023-03-01T07:28:27;28.80;;;13.93;;
5195;SDS011;2617;51.006;12.436;2023-03-01T07:33:29;26.90;;;13.30;;
5195;SDS011;2617;51.006;12.436;2023-03-01T07:38:32;23.87;;;13.75;;
5195;SDS011;2617;51.006;12.436;2023-03-01T07:43:34;26.10;;;15.43;;
5195;SDS011;2617;51.006;12.436;2023-03-01T07:48:36;25.00;;;14.40;;
5195;SDS011;2617;51.006;12.436;2023-03-01T07:53:39;28.43;;;14.73;;
5195;SDS011;2617;51.006;12.436;2023-03-01T07:58:43;30.40;;;15.37;;
5195;SDS011;2617;51.006;12.436;2023-03-01T08:03:46;27.75;;;15.77;;
5195;SDS011;2617;51.006;12.436;2023-03-01T08:08:48;36.60;;;17.80;;
5195;SDS011;2617;51.006;12.436;2023-03-01T08:13:50;33.50;;;18.20;;
5195;SDS011;2617;51.006;12.436;2023-03-01T08:18:53;42.60;;;19.20;;
5195;SDS011;2617;51.006;12.436;2023-03-01T08:23:55;46.00;;;18.97;;
5195;SDS011;2617;51.006;12.436;2023-03-01T08:28:59;35.80;;;20.33;;
5195;SDS011;2617;51.006;12.436;2023-03-01T08:34:01;43.57;;;22.60;;
5195;SDS011;2617;51.006;12.436;2023-03-01T08:39:03;43.25;;;20.60;;
5195;SDS011;2617;51.006;12.436;2023-03-01T08:44:06;38.03;;;19.30;;
5195;SDS011;2617;51.006;12.436;2023-03-01T08:49:12;32.13;;;15.70;;
5195;SDS011;2617;51.006;12.436;2023-03-01T08:54:16;27.20;;;15.18;;
5195;SDS011;2617;51.006;12.436;2023-03-01T08:59:18;35.57;;;14.90;;
5195;SDS011;2617;51.006;12.436;2023-03-01T09:04:20;22.57;;;13.60;;
5195;SDS011;2617;51.006;12.436;2023-03-01T09:09:23;25.03;;;16.10;;
5195;SDS011;2617;51.006;12.436;2023-03-01T09:14:26;24.30;;;13.57;;
5195;SDS011;2617;51.006;12.436;2023-03-01T09:19:29;23.77;;;14.27;;
5195;SDS011;2617;51.006;12.436;2023-03-01T09:24:32;22.50;;;12.67;;
5195;SDS011;2617;51.006;12.436;2023-03-01T09:29:36;19.90;;;12.73;;
5195;SDS011;2617;51.006;12.436;2023-03-01T09:34:37;24.10;;;13.40;;
5195;SDS011;2617;51.006;12.436;2023-03-01T09:39:55;26.47;;;13.17;;
5195;SDS011;2617;51.006;12.436;2023-03-01T09:44:58;22.00;;;12.75;;
5195;SDS011;2617;51.006;12.436;2023-03-01T09:50:10;19.13;;;11.10;;
5195;SDS011;2617;51.006;12.436;2023-03-01T09:55:14;20.83;;;12.30;;
5195;SDS011;2617;51.006;12.436;2023-03-01T10:00:20;16.27;;;11.00;;
5195;SDS011;2617;51.006;12.436;2023-03-01T10:05:53;27.50;;;12.80;;
5195;SDS011;2617;51.006;12.436;2023-03-01T10:11:17;33.03;;;16.83;;
5195;SDS011;2617;51.006;12.436;2023-03-01T10:16:22;33.27;;;14.43;;
5195;SDS011;2617;51.006;12.436;2023-03-01T10:21:25;18.87;;;11.10;;
5195;SDS011;2617;51.006;12.436;2023-03-01T10:26:35;23.87;;;11.77;;
5195;SDS011;2617;51.006;12.436;2023-03-01T10:31:39;30.80;;;13.83;;
5195;SDS011;2617;51.006;12.436;2023-03-01T10:36:48;18.48;;;10.95;;
5195;SDS011;2617;51.006;12.436;2023-03-01T10:41:56;26.67;;;12.50;;
5195;SDS011;2617;51.006;12.436;2023-03-01T10:46:59;25.63;;;14.90;;
5195;SDS011;2617;51.006;12.436;2023-03-01T10:52:11;20.40;;;11.03;;
5195;SDS011;2617;51.006;12.436;2023-03-01T10:57:04;63.57;;;17.10;;
5195;SDS011;2617;51.006;12.436;2023-03-01T11:02:15;20.00;;;10.83;;
5195;SDS011;2617;51.006;12.436;2023-03-01T11:07:18;18.00;;;11.40;;
5195;SDS011;2617;51.006;12.436;2023-03-01T11:12:20;17.63;;;12.13;;
5195;SDS011;2617;51.006;12.436;2023-03-01T11:17:27;27.63;;;11.83;;
5195;SDS011;2617;51.006;12.436;2023-03-01T11:22:29;22.60;;;11.63;;
5195;SDS011;2617;51.006;12.436;2023-03-01T11:27:32;19.25;;;11.02;;
5195;SDS011;2617;51.006;12.436;2023-03-01T11:32:39;16.27;;;10.60;;
5195;SDS011;2617;51.006;12.436;2023-03-01T11:37:41;17.03;;;10.00;;
5195;SDS011;2617;51.006;12.436;2023-03-01T11:42:48;18.33;;;10.60;;
5195;SDS011;2617;51.006;12.436;2023-03-01T11:48:26;17.54;;;10.54;;
5195;SDS011;2617;51.006;12.436;2023-03-01T11:53:49;18.63;;;10.60;;
5195;SDS011;2617;51.006;12.436;2023-03-01T11:59:00;20.50;;;11.73;;
5195;SDS011;2617;51.006;12.436;2023-03-01T12:09:41;18.00;;;10.23;;
5195;SDS011;2617;51.006;12.436;2023-03-01T12:14:54;25.00;;;13.87;;
5195;SDS011;2617;51.006;12.436;2023-03-01T12:25:35;15.33;;;10.63;;
5195;SDS011;2617;51.006;12.436;2023-03-01T12:30:50;36.50;;;14.20;;
5195;SDS011;2617;51.006;12.436;2023-03-01T12:36:22;25.50;;;13.67;;
5195;SDS011;2617;51.006;12.436;2023-03-01T12:46:59;17.60;;;9.50;;
5195;SDS011;2617;51.006;12.436;2023-03-01T12:57:38;23.83;;;9.40;;
5195;SDS011;2617;51.006;12.436;2023-03-01T13:08:27;26.17;;;10.40;;
5195;SDS011;2617;51.006;12.436;2023-03-01T13:13:37;17.20;;;9.80;;
5195;SDS011;2617;51.006;12.436;2023-03-01T13:18:40;16.33;;;10.90;;
5195;SDS011;2617;51.006;12.436;2023-03-01T13:23:44;17.70;;;9.50;;
5195;SDS011;2617;51.006;12.436;2023-03-01T13:34:02;19.10;;;10.50;;
5195;SDS011;2617;51.006;12.436;2023-03-01T13:44:33;17.03;;;10.20;;
5195;SDS011;2617;51.006;12.436;2023-03-01T13:54:44;19.10;;;10.43;;
5195;SDS011;2617;51.006;12.436;2023-03-01T13:59:47;15.20;;;9.80;;
5195;SDS011;2617;51.006;12.436;2023-03-01T14:04:56;18.60;;;10.10;;
5195;SDS011;2617;51.006;12.436;2023-03-01T14:10:02;15.57;;;9.50;;
5195;SDS011;2617;51.006;12.436;2023-03-01T14:15:15;15.73;;;9.57;;
5195;SDS011;2617;51.006;12.436;2023-03-01T14:20:20;16.80;;;9.32;;
5195;SDS011;2617;51.006;12.436;2023-03-01T14:25:23;18.50;;;10.60;;
5195;SDS011;2617;51.006;12.436;2023-03-01T14:30:27;13.70;;;9.53;;
5195;SDS011;2617;51.006;12.436;2023-03-01T14:35:30;14.37;;;9.60;;
5195;SDS011;2617;51.006;12.436;2023-03-01T14:40:34;29.63;;;9.93;;
5195;SDS011;2617;51.006;12.436;2023-03-01T14:45:35;17.10;;;9.00;;
5195;SDS011;2617;51.006;12.436;2023-03-01T14:50:41;12.63;;;8.83;;
5195;SDS011;2617;51.006;12.436;2023-03-01T14:55:44;13.53;;;7.87;;
5195;SDS011;2617;51.006;12.436;2023-03-01T15:00:54;12.37;;;7.40;;
5195;SDS011;2617;51.006;12.436;2023-03-01T15:05:55;12.53;;;7.53;;
5195;SDS011;2617;51.006;12.436;2023-03-01T15:16:21;8.30;;;6.90;;
5195;SDS011;2617;51.006;12.436;2023-03-01T15:21:26;6.20;;;5.40;;
5195;SDS011;2617;51.006;12.436;2023-03-01T15:26:30;8.73;;;5.87;;
5195;SDS011;2617;51.006;12.436;2023-03-01T15:31:34;9.65;;;6.07;;
5195;SDS011;2617;51.006;12.436;2023-03-01T15:36:41;10.17;;;6.17;;
5195;SDS011;2617;51.006;12.436;2023-03-01T15:41:46;10.30;;;5.60;;
5195;SDS011;2617;51.006;12.436;2023-03-01T15:46:48;8.77;;;5.83;;
5195;SDS011;2617;51.006;12.436;2023-03-01T15:51:51;8.37;;;5.27;;
5195;SDS011;2617;51.006;12.436;2023-03-01T15:56:53;10.90;;;7.03;;
5195;SDS011;2617;51.006;12.436;2023-03-01T16:01:56;7.83;;;4.83;;
5195;SDS011;2617;51.006;12.436;2023-03-01T16:06:58;8.40;;;5.47;;
5195;SDS011;2617;51.006;12.436;2023-03-01T16:12:01;9.70;;;5.27;;
5195;SDS011;2617;51.006;12.436;2023-03-01T16:17:04;8.90;;;6.00;;
5195;SDS011;2617;51.006;12.436;2023-03-01T16:22:09;11.77;;;6.20;;
5195;SDS011;2617;51.006;12.436;2023-03-01T16:27:10;9.00;;;6.33;;
5195;SDS011;2617;51.006;12.436;2023-03-01T16:32:13;9.30;;;7.00;;
5195;SDS011;2617;51.006;12.436;2023-03-01T16:37:16;13.67;;;8.73;;
5195;SDS011;2617;51.006;12.436;2023-03-01T16:42:18;10.37;;;7.10;;
5195;SDS011;2617;51.006;12.436;2023-03-01T16:47:21;11.57;;;7.30;;
5195;SDS011;2617;51.006;12.436;2023-03-01T16:52:24;23.55;;;9.18;;
5195;SDS011;2617;51.006;12.436;2023-03-01T16:57:26;18.90;;;10.10;;
5195;SDS011;2617;51.006;12.436;2023-03-01T17:02:30;17.60;;;9.57;;
5195;SDS011;2617;51.006;12.436;2023-03-01T17:07:32;18.33;;;11.13;;
5195;SDS011;2617;51.006;12.436;2023-03-01T17:12:35;19.42;;;9.98;;
5195;SDS011;2617;51.006;12.436;2023-03-01T17:17:37;31.80;;;13.97;;
5195;SDS011;2617;51.006;12.436;2023-03-01T17:22:40;28.73;;;11.97;;
5195;SDS011;2617;51.006;12.436;2023-03-01T17:27:43;62.27;;;25.00;;
5195;SDS011;2617;51.006;12.436;2023-03-01T17:32:45;36.93;;;19.13;;
5195;SDS011;2617;51.006;12.436;2023-03-01T17:37:47;18.63;;;12.87;;
5195;SDS011;2617;51.006;12.436;2023-03-01T17:42:51;16.72;;;9.74;;
5195;SDS011;2617;51.006;12.436;2023-03-01T17:47:54;19.60;;;9.53;;
5195;SDS011;2617;51.006;12.436;2023-03-01T17:52:57;18.40;;;10.90;;
5195;SDS011;2617;51.006;12.436;2023-03-01T17:57:59;35.13;;;19.65;;
5195;SDS011;2617;51.006;12.436;2023-03-01T18:03:02;26.83;;;15.00;;
5195;SDS011;2617;51.006;12.436;2023-03-01T18:08:05;23.17;;;11.70;;
5195;SDS011;2617;51.006;12.436;2023-03-01T18:13:08;18.33;;;9.60;;
5195;SDS011;2617;51.006;12.436;2023-03-01T18:18:10;18.60;;;11.47;;
5195;SDS011;2617;51.006;12.436;2023-03-01T18:23:12;14.63;;;9.13;;
5195;SDS011;2617;51.006;12.436;2023-03-01T18:28:15;17.40;;;9.80;;
5195;SDS011;2617;51.006;12.436;2023-03-01T18:33:17;22.23;;;11.77;;
5195;SDS011;2617;51.006;12.436;2023-03-01T18:38:19;24.40;;;16.03;;
5195;SDS011;2617;51.006;12.436;2023-03-01T18:43:23;15.23;;;10.17;;
5195;SDS011;2617;51.006;12.436;2023-03-01T18:48:25;17.10;;;10.93;;
5195;SDS011;2617;51.006;12.436;2023-03-01T18:53:28;13.63;;;9.03;;
5195;SDS011;2617;51.006;12.436;2023-03-01T18:58:30;16.80;;;9.50;;
5195;SDS011;2617;51.006;12.436;2023-03-01T19:03:34;13.70;;;9.03;;
5195;SDS011;2617;51.006;12.436;2023-03-01T19:08:36;13.27;;;8.43;;
5195;SDS011;2617;51.006;12.436;2023-03-01T19:13:38;13.82;;;7.90;;
5195;SDS011;2617;51.006;12.436;2023-03-01T19:18:42;14.87;;;8.20;;
5195;SDS011;2617;51.006;12.436;2023-03-01T19:23:43;18.37;;;8.05;;
5195;SDS011;2617;51.006;12.436;2023-03-01T19:28:47;17.50;;;8.53;;
5195;SDS011;2617;51.006;12.436;2023-03-01T19:33:49;21.90;;;8.70;;
5195;SDS011;2617;51.006;12.436;2023-03-01T19:38:53;14.92;;;8.30;;
5195;SDS011;2617;51.006;12.436;2023-03-01T19:43:55;11.67;;;7.80;;
5195;SDS011;2617;51.006;12.436;2023-03-01T19:48:58;13.98;;;6.72;;
5195;SDS011;2617;51.006;12.436;2023-03-01T19:54:00;11.13;;;7.00;;
5195;SDS011;2617;51.006;12.436;2023-03-01T19:59:03;13.97;;;7.97;;
5195;SDS011;2617;51.006;12.436;2023-03-01T20:04:06;13.67;;;8.60;;
5195;SDS011;2617;51.006;12.436;2023-03-01T20:09:09;13.37;;;7.23;;
5195;SDS011;2617;51.006;12.436;2023-03-01T20:14:11;10.63;;;7.17;;
5195;SDS011;2617;51.006;12.436;2023-03-01T20:19:15;11.12;;;7.10;;
5195;SDS011;2617;51.006;12.436;2023-03-01T20:24:17;13.75;;;7.30;;
5195;SDS011;2617;51.006;12.436;2023-03-01T20:29:20;12.00;;;7.33;;
5195;SDS011;2617;51.006;12.436;2023-03-01T20:34:23;10.68;;;7.40;;
5195;SDS011;2617;51.006;12.436;2023-03-01T20:39:26;14.27;;;8.60;;
5195;SDS011;2617;51.006;12.436;2023-03-01T20:44:29;15.37;;;7.10;;
5195;SDS011;2617;51.006;12.436;2023-03-01T20:49:32;9.93;;;7.17;;
5195;SDS011;2617;51.006;12.436;2023-03-01T20:54:35;12.93;;;6.93;;
5195;SDS011;2617;51.006;12.436;2023-03-01T20:59:38;10.53;;;7.47;;
5195;SDS011;2617;51.006;12.436;2023-03-01T21:04:41;12.30;;;7.47;;
5195;SDS011;2617;51.006;12.436;2023-03-01T21:09:43;14.03;;;7.00;;
5195;SDS011;2617;51.006;12.436;2023-03-01T21:14:45;12.10;;;7.30;;
5195;SDS011;2617;51.006;12.436;2023-03-01T21:19:48;12.00;;;7.57;;
5195;SDS011;2617;51.006;12.436;2023-03-01T21:24:51;13.10;;;8.33;;
5195;SDS011;2617;51.006;12.436;2023-03-01T21:29:54;12.88;;;7.60;;
5195;SDS011;2617;51.006;12.436;2023-03-01T21:34:56;10.80;;;7.20;;
5195;SDS011;2617;51.006;12.436;2023-03-01T21:39:59;11.80;;;6.82;;
5195;SDS011;2617;51.006;12.436;2023-03-01T21:45:02;14.37;;;7.43;;
5195;SDS011;2617;51.006;12.436;2023-03-01T21:50:05;14.43;;;7.07;;
5195;SDS011;2617;51.006;12.436;2023-03-01T21:55:08;11.30;;;7.17;;
5195;SDS011;2617;51.006;12.436;2023-03-01T22:00:12;10.10;;;6.83;;
5195;SDS011;2617;51.006;12.436;2023-03-01T22:05:14;14.03;;;7.70;;
5195;SDS011;2617;51.006;12.436;2023-03-01T22:10:17;11.37;;;7.20;;
5195;SDS011;2617;51.006;12.436;2023-03-01T22:15:19;12.63;;;6.70;;
5195;SDS011;2617;51.006;12.436;2023-03-01T22:20:23;10.87;;;6.63;;
5195;SDS011;2617;51.006;12.436;2023-03-01T22:25:25;11.80;;;7.80;;
5195;SDS011;2617;51.006;12.436;2023-03-01T22:30:28;13.03;;;6.93;;
5195;SDS011;2617;51.006;12.436;2023-03-01T22:35:30;12.60;;;7.10;;
5195;SDS011;2617;51.006;12.436;2023-03-01T22:40:32;11.90;;;7.75;;
5195;SDS011;2617;51.006;12.436;2023-03-01T22:45:35;12.15;;;7.30;;
5195;SDS011;2617;51.006;12.436;2023-03-01T22:50:40;11.10;;;6.47;;
5195;SDS011;2617;51.006;12.436;2023-03-01T22:55:40;16.93;;;7.50;;
5195;SDS011;2617;51.006;12.436;2023-03-01T23:00:42;10.90;;;6.40;;
5195;SDS011;2617;51.006;12.436;2023-03-01T23:05:45;12.03;;;7.57;;
5195;SDS011;2617;51.006;12.436;2023-03-01T23:10:47;16.03;;;7.60;;
5195;SDS011;2617;51.006;12.436;2023-03-01T23:15:55;14.00;;;7.80;;
5195;SDS011;2617;51.006;12.436;2023-03-01T23:20:57;12.90;;;7.93;;
5195;SDS011;2617;51.006;12.436;2023-03-01T23:25:59;12.20;;;7.13;;
5195;SDS011;2617;51.006;12.436;2023-03-01T23:31:03;12.32;;;7.10;;
5195;SDS011;2617;51.006;12.436;2023-03-01T23:36:05;9.00;;;6.90;;
5195;SDS011;2617;51.006;12.436;2023-03-01T23:41:08;11.30;;;7.27;;
5195;SDS011;2617;51.006;12.436;2023-03-01T23:46:11;10.40;;;6.57;;
5195;SDS011;2617;51.006;12.436;2023-03-01T23:51:14;8.00;;;5.60;;
5195;SDS011;2617;51.006;12.436;2023-03-01T23:56:16;12.53;;;6.20;;
